createdAt,value
2023-02-27T00:00:17.971Z,28.83
2023-02-27T00:01:18.012Z,27.93
2023-02-27T00:02:18.070Z,29.12
2023-02-27T00:03:18.049Z,31.95
2023-02-27T00:04:18.995Z,30.55
2023-02-27T00:05:18.116Z,26.68
2023-02-27T00:06:18.193Z,30.32
2023-02-27T00:07:18.150Z,28.54
2023-02-27T00:08:18.166Z,30.01
2023-02-27T00:09:18.182Z,30.44
2023-02-27T00:10:18.187Z,29.09
2023-02-27T00:11:18.188Z,27.71
2023-02-27T00:12:18.218Z,29.40
2023-02-27T00:13:18.251Z,29.07
2023-02-27T00:14:18.260Z,26.94
2023-02-27T00:15:18.301Z,28.00
2023-02-27T00:16:18.373Z,29.68
2023-02-27T00:17:18.415Z,28.81
2023-02-27T00:18:18.419Z,30.67
2023-02-27T00:19:18.494Z,30.14
2023-02-27T00:20:18.559Z,29.09
2023-02-27T00:21:18.570Z,27.14
2023-02-27T00:22:18.615Z,30.02
2023-02-27T00:23:18.659Z,33.64
2023-02-27T00:24:18.685Z,29.20
2023-02-27T00:25:18.700Z,29.70
2023-02-27T00:26:18.760Z,28.00
2023-02-27T00:27:18.762Z,28.32
2023-02-27T00:28:18.791Z,27.51
2023-02-27T00:29:18.809Z,27.57
2023-02-27T00:30:18.831Z,33.34
2023-02-27T00:31:19.037Z,28.31
2023-02-27T00:32:19.073Z,29.37
2023-02-27T00:33:18.906Z,29.74
2023-02-27T00:34:18.931Z,33.00
2023-02-27T00:35:19.098Z,32.36
2023-02-27T00:36:19.015Z,27.36
2023-02-27T00:37:19.110Z,32.84
2023-02-27T00:38:19.111Z,31.10
2023-02-27T00:39:19.156Z,30.92
2023-02-27T00:40:19.225Z,27.41
2023-02-27T00:41:19.271Z,28.26
2023-02-27T00:42:19.300Z,29.93
2023-02-27T00:43:19.346Z,25.84
2023-02-27T00:44:19.390Z,28.04
2023-02-27T00:45:19.424Z,30.60
2023-02-27T00:47:19.518Z,29.47
2023-02-27T00:48:19.530Z,31.13
2023-02-27T00:49:19.559Z,28.80
2023-02-27T00:50:19.596Z,30.52
2023-02-27T00:52:20.025Z,28.62
2023-02-27T00:53:19.714Z,30.34
2023-02-27T02:20:26.023Z,29.39
2023-02-27T02:21:26.423Z,28.54
2023-02-27T02:22:26.074Z,30.69
2023-02-27T02:23:26.138Z,28.73
2023-02-27T02:24:26.228Z,28.61
2023-02-27T02:25:26.279Z,30.64
2023-02-27T02:26:27.730Z,28.66
2023-02-27T02:27:26.349Z,33.04
2023-02-27T02:28:26.358Z,27.97
2023-02-27T02:29:26.373Z,29.82
2023-02-27T02:30:27.207Z,31.53
2023-02-27T02:31:27.028Z,28.40
2023-02-27T02:32:26.439Z,30.38
2023-02-27T02:33:26.414Z,26.42
2023-02-27T02:34:26.438Z,27.83
2023-02-27T02:35:26.460Z,29.09
2023-02-27T02:36:26.455Z,31.73
2023-02-27T02:37:26.465Z,28.57
2023-02-27T02:38:26.494Z,29.45
2023-02-27T02:39:26.499Z,29.03
2023-02-27T02:40:26.528Z,31.27
2023-02-27T02:41:26.822Z,27.79
2023-02-27T02:42:26.532Z,29.38
2023-02-27T02:43:26.540Z,27.26
2023-02-27T02:44:26.554Z,30.77
2023-02-27T02:45:26.563Z,31.00
2023-02-27T02:46:26.611Z,28.48
2023-02-27T02:47:26.594Z,31.00
2023-02-27T02:48:26.596Z,29.43
2023-02-27T02:49:26.613Z,28.87
2023-02-27T02:50:26.613Z,29.23
2023-02-27T02:51:26.974Z,28.25
2023-02-27T02:52:26.640Z,27.01
2023-02-27T02:53:31.110Z,28.63
2023-02-27T02:54:28.556Z,28.84
2023-02-27T02:55:26.670Z,29.24
2023-02-27T02:56:26.658Z,29.88
2023-02-27T02:58:26.679Z,28.88
2023-02-27T04:56:36.108Z,29.36
2023-02-27T05:01:36.156Z,26.11
2023-02-27T05:05:35.945Z,29.59
2023-02-27T05:06:36.020Z,31.88
2023-02-27T05:07:36.086Z,27.85
2023-02-27T05:08:36.152Z,27.92
2023-02-27T05:09:36.239Z,29.13
2023-02-27T05:10:36.319Z,29.71
2023-02-27T05:11:36.398Z,28.35
2023-02-27T05:12:36.483Z,32.02
2023-02-27T05:13:36.549Z,29.67
2023-02-27T05:14:36.630Z,29.34
2023-02-27T05:15:36.793Z,30.42
2023-02-27T05:16:36.874Z,29.18
2023-02-27T05:17:36.882Z,27.25
2023-02-27T05:18:36.936Z,30.55
2023-02-27T05:19:37.005Z,32.04
2023-02-27T05:20:37.092Z,29.73
2023-02-27T05:21:37.167Z,29.28
2023-02-27T05:22:37.248Z,29.07
2023-02-27T05:23:37.325Z,27.49
2023-02-27T05:24:37.464Z,28.55
2023-02-27T05:25:37.511Z,27.36
2023-02-27T05:26:37.558Z,27.77
2023-02-27T05:27:37.693Z,28.05
2023-02-27T05:28:37.682Z,29.66
2023-02-27T05:29:37.761Z,27.83
2023-02-27T05:30:37.838Z,28.83
2023-02-27T05:31:37.996Z,30.33
2023-02-27T05:32:38.034Z,31.29
2023-02-27T05:33:38.075Z,28.88
2023-02-27T05:34:38.145Z,30.70
2023-02-27T05:35:38.235Z,31.02
2023-02-27T05:36:38.308Z,31.27
2023-02-27T05:37:38.465Z,29.83
2023-02-27T05:38:38.457Z,28.46
2023-02-27T05:39:38.544Z,30.01
2023-02-27T05:40:38.612Z,33.67
2023-02-27T07:46:45.981Z,46.43
2023-02-27T07:47:46.032Z,47.63
2023-02-27T07:48:46.083Z,45.30
2023-02-27T07:49:46.145Z,48.46
2023-02-27T07:50:46.201Z,44.46
2023-02-27T07:51:46.270Z,46.12
2023-02-27T07:52:46.320Z,46.28
2023-02-27T07:53:46.389Z,45.85
2023-02-27T07:54:46.429Z,47.41
2023-02-27T07:55:46.487Z,49.58
2023-02-27T07:56:46.535Z,45.42
2023-02-27T07:57:46.592Z,46.77
2023-02-27T07:58:46.667Z,48.31
2023-02-27T07:59:46.720Z,47.44
2023-02-27T08:00:46.781Z,48.04
2023-02-27T08:01:46.837Z,49.99
2023-02-27T08:02:46.999Z,45.91
2023-02-27T08:03:46.965Z,47.78
2023-02-27T08:04:47.037Z,47.01
2023-02-27T08:05:47.072Z,51.09
2023-02-27T08:06:47.133Z,47.99
2023-02-27T08:18:47.892Z,50.02
2023-02-27T08:19:47.911Z,46.70
2023-02-27T08:20:47.941Z,49.23
2023-02-27T08:21:47.989Z,49.66
2023-02-27T08:22:48.048Z,50.27
2023-02-27T08:23:48.113Z,54.07
2023-02-27T08:24:48.165Z,57.57
2023-02-27T08:25:48.205Z,65.24
2023-02-27T08:26:48.250Z,73.20
2023-02-27T08:27:48.291Z,81.17
2023-02-27T08:28:48.315Z,85.77
2023-02-27T08:29:48.360Z,101.99
2023-02-27T08:30:48.363Z,117.04
2023-02-27T08:31:48.490Z,124.81
2023-02-27T08:32:48.411Z,131.46
2023-02-27T08:33:53.107Z,143.27
2023-02-27T08:34:49.695Z,143.81
2023-02-27T08:35:48.425Z,145.61
2023-02-27T08:36:48.506Z,152.12
2023-02-27T08:37:48.397Z,164.51
2023-02-27T08:38:48.379Z,188.71
2023-02-27T08:39:48.360Z,194.98
2023-02-27T08:40:48.422Z,204.74
2023-02-27T08:41:48.349Z,211.94
2023-02-27T08:42:48.338Z,223.90
2023-02-27T08:43:48.319Z,241.34
2023-02-27T08:44:48.378Z,245.74
2023-02-27T08:45:48.478Z,250.00
2023-02-27T08:46:48.496Z,250.01
2023-02-27T08:47:48.551Z,248.81
2023-02-27T08:48:48.605Z,250.00
2023-02-27T09:45:51.430Z,217.69
2023-02-27T09:46:51.325Z,221.02
2023-02-27T09:47:51.353Z,222.98
2023-02-27T09:49:51.382Z,232.21
2023-02-27T09:50:51.416Z,232.18
2023-02-27T09:51:53.327Z,237.42
2023-02-27T09:52:51.440Z,239.22
2023-02-27T09:53:51.454Z,242.83
2023-02-27T09:54:51.483Z,245.96
2023-02-27T09:55:51.507Z,250.00
2023-02-27T09:56:51.509Z,249.85
2023-02-27T09:57:51.522Z,249.70
2023-02-27T09:58:51.543Z,250.00
2023-02-27T09:59:52.801Z,250.00
2023-02-27T10:00:51.580Z,250.00
2023-02-27T10:01:51.581Z,249.49
2023-02-27T10:02:51.633Z,249.78
2023-02-27T10:03:51.589Z,249.99
2023-02-27T10:04:51.627Z,249.85
2023-02-27T10:05:51.625Z,250.00
2023-02-27T10:06:51.617Z,249.50
2023-02-27T10:07:51.622Z,249.73
2023-02-27T10:08:51.612Z,249.90
2023-02-27T10:09:51.613Z,250.00
2023-02-27T10:10:51.600Z,249.60
2023-02-27T10:11:51.592Z,249.30
2023-02-27T10:12:51.592Z,248.69
2023-02-27T10:13:52.221Z,249.77
2023-02-27T10:14:51.560Z,250.00
2023-02-27T10:15:51.550Z,250.00
2023-02-27T10:16:51.556Z,249.28
2023-02-27T10:17:51.539Z,245.76
2023-02-27T10:18:51.561Z,249.63
2023-02-27T10:20:51.585Z,248.98
2023-02-27T10:21:51.554Z,247.70
2023-02-27T10:22:51.580Z,249.49
2023-02-27T10:23:51.556Z,247.97
2023-02-27T10:24:52.337Z,248.60
2023-02-27T10:25:52.241Z,248.59
2023-02-27T10:26:51.612Z,248.79
2023-02-27T10:27:51.607Z,248.66
2023-02-27T10:29:51.658Z,248.42
2023-02-27T10:30:51.748Z,248.32
2023-02-27T10:31:51.750Z,247.90
2023-02-27T10:32:51.822Z,247.46
2023-02-27T10:33:51.803Z,245.75
2023-02-27T10:34:51.851Z,246.47
2023-02-27T10:36:51.950Z,245.81
2023-02-27T10:37:52.001Z,246.56
2023-02-27T10:38:52.046Z,244.15
2023-02-27T10:39:52.096Z,243.72
2023-02-27T10:40:52.170Z,245.84
2023-02-27T10:41:52.207Z,245.72
2023-02-27T10:42:52.278Z,244.29
2023-02-27T10:45:52.467Z,241.36
2023-02-27T10:46:52.505Z,243.76
2023-02-27T10:47:52.477Z,240.44
2023-02-27T10:48:52.484Z,240.57
2023-02-27T10:49:52.505Z,239.91
2023-02-27T10:50:52.552Z,240.00
2023-02-27T10:51:52.587Z,239.10
2023-02-27T10:52:52.630Z,239.50
2023-02-27T10:53:52.659Z,238.23
2023-02-27T10:55:52.701Z,236.83
2023-02-27T10:56:52.808Z,238.18
2023-02-27T10:57:52.766Z,237.50
2023-02-27T13:21:55.945Z,183.78
2023-02-27T13:22:56.004Z,184.09
2023-02-27T13:23:56.046Z,182.85
2023-02-27T13:24:56.150Z,184.33
2023-02-27T13:25:56.148Z,183.20
2023-02-27T13:26:56.271Z,183.72
2023-02-27T13:27:56.250Z,182.55
2023-02-27T13:28:56.288Z,182.24
2023-02-27T13:29:56.353Z,183.05
2023-02-27T13:30:56.398Z,181.77
2023-02-27T13:31:56.520Z,181.12
2023-02-27T13:32:56.568Z,182.62
2023-02-27T13:33:56.565Z,182.36
2023-02-27T13:34:56.603Z,179.43
2023-02-27T13:35:56.671Z,179.18
2023-02-27T13:36:56.701Z,181.59
2023-02-27T13:37:56.756Z,179.14
2023-02-27T13:38:56.799Z,179.21
2023-02-27T13:39:56.884Z,178.23
2023-02-27T13:40:56.894Z,179.22
2023-02-27T13:41:56.955Z,179.20
2023-02-27T13:42:57.010Z,178.22
2023-02-27T13:43:57.044Z,177.28
2023-02-27T13:44:57.098Z,177.08
2023-02-27T13:45:57.255Z,176.75
2023-02-27T13:46:57.188Z,174.73
2023-02-27T13:47:57.229Z,175.86
2023-02-27T13:56:57.613Z,172.13
2023-02-27T13:57:57.679Z,172.98
2023-02-27T13:58:58.034Z,172.99
2023-02-27T13:59:57.694Z,171.32
2023-02-27T14:00:58.353Z,170.29
2023-02-27T14:01:57.765Z,171.23
2023-02-27T14:03:00.205Z,170.52
2023-02-27T14:03:57.808Z,171.98
2023-02-27T14:04:57.798Z,170.04
2023-02-27T14:05:57.902Z,170.42
2023-02-27T14:06:57.795Z,168.83
2023-02-27T14:07:57.796Z,169.05
2023-02-27T14:09:08.817Z,167.97
2023-02-27T14:09:58.852Z,168.18
2023-02-27T14:10:57.825Z,168.15
2023-02-27T14:11:57.815Z,168.43
2023-02-27T14:12:57.814Z,168.35
2023-02-27T14:13:57.870Z,168.05
2023-02-27T14:14:57.805Z,167.64
2023-02-27T14:15:57.897Z,167.26
2023-02-27T14:16:57.812Z,166.10
2023-02-27T14:18:12.342Z,166.00
2023-02-27T14:18:58.812Z,166.10
2023-02-27T14:19:57.818Z,166.05
2023-02-27T14:20:57.818Z,166.16
2023-02-27T14:21:57.831Z,165.43
2023-02-27T14:22:57.817Z,164.95
2023-02-27T14:23:57.843Z,165.32
2023-02-27T14:25:02.925Z,164.29
2023-02-27T14:25:58.840Z,164.37
2023-02-27T14:26:57.861Z,164.67
2023-02-27T14:28:57.833Z,163.73
2023-02-27T14:29:57.829Z,164.00
2023-02-27T14:30:57.915Z,163.41
2023-02-27T14:31:57.881Z,162.61
2023-02-27T14:32:57.837Z,162.91
2023-02-27T14:34:57.833Z,159.97
2023-02-27T14:35:57.863Z,161.23
2023-02-27T14:37:57.826Z,161.66
2023-02-27T14:39:57.823Z,161.31
2023-02-27T14:40:57.820Z,162.29
2023-02-27T14:41:57.841Z,161.06
2023-02-27T14:42:57.876Z,159.66
2023-02-27T14:44:57.967Z,159.88
2023-02-27T14:45:58.028Z,159.91
2023-02-27T14:46:58.066Z,160.20
2023-02-27T14:47:58.125Z,159.51
2023-02-27T14:49:58.208Z,159.98
2023-02-27T14:50:58.239Z,159.47
2023-02-27T14:51:58.299Z,159.69
2023-02-27T14:52:58.359Z,157.26
2023-02-27T14:53:58.398Z,158.33
2023-02-27T14:54:58.464Z,158.03
2023-02-27T14:55:58.516Z,158.47
2023-02-27T14:56:58.572Z,157.84
2023-02-27T14:57:58.614Z,158.16
2023-02-27T14:59:04.347Z,158.44
2023-02-27T14:59:59.655Z,158.50
2023-02-27T15:00:58.651Z,158.45
2023-02-27T15:01:58.726Z,158.54
2023-02-27T15:02:58.680Z,157.05
2023-02-27T15:03:58.793Z,157.75
2023-02-27T15:04:58.668Z,156.67
2023-02-27T15:05:58.666Z,156.29
2023-02-27T15:06:58.673Z,155.51
2023-02-27T15:07:58.678Z,154.44
2023-02-27T15:09:58.696Z,154.19
2023-02-27T15:10:58.695Z,154.42
2023-02-27T15:12:03.947Z,153.89
2023-02-27T15:12:59.720Z,154.02
2023-02-27T15:13:58.713Z,154.25
2023-02-27T15:14:58.819Z,154.42
2023-02-27T15:16:02.235Z,154.37
2023-02-27T15:16:59.740Z,154.03
2023-02-27T17:17:06.053Z,145.11
2023-02-27T17:18:07.517Z,143.24
2023-02-27T17:19:06.068Z,147.42
2023-02-27T17:20:06.105Z,146.17
2023-02-27T17:21:06.075Z,143.90
2023-02-27T17:22:06.075Z,143.69
2023-02-27T17:23:06.089Z,144.69
2023-02-27T17:24:06.119Z,143.51
2023-02-27T17:25:06.119Z,142.03
2023-02-27T17:26:06.117Z,143.11
2023-02-27T17:27:06.124Z,142.99
2023-02-27T17:28:06.128Z,143.13
2023-02-27T17:29:06.142Z,142.37
2023-02-27T17:30:06.206Z,143.17
2023-02-27T17:31:06.245Z,143.88
2023-02-27T17:32:06.193Z,141.28
2023-02-27T17:33:06.180Z,143.74
2023-02-27T17:34:06.189Z,141.19
2023-02-27T17:35:06.204Z,140.67
2023-02-27T17:36:06.203Z,139.00
2023-02-27T17:37:06.203Z,141.89
2023-02-27T17:38:07.522Z,142.06
2023-02-27T17:39:06.215Z,142.37
2023-02-27T17:40:06.243Z,142.27
2023-02-27T17:41:06.231Z,142.05
2023-02-27T17:42:06.246Z,140.44
2023-02-27T17:43:06.268Z,140.08
2023-02-27T17:44:06.277Z,140.45
2023-02-27T17:45:06.314Z,140.24
2023-02-27T17:46:06.325Z,139.90
2023-02-27T17:47:06.313Z,139.14
2023-02-27T17:48:06.351Z,136.74
2023-02-27T17:49:06.344Z,138.45
2023-02-27T17:50:06.362Z,135.91
2023-02-27T17:51:06.352Z,138.07
2023-02-27T17:52:06.376Z,139.09
2023-02-27T17:53:06.397Z,135.81
2023-02-27T17:54:06.396Z,137.82
2023-02-27T17:55:06.436Z,137.36
2023-02-27T17:56:06.417Z,138.05
2023-02-27T17:57:06.433Z,136.84
2023-02-27T17:58:06.489Z,135.12
2023-02-27T17:59:06.558Z,136.29
2023-02-27T18:00:06.647Z,136.87
2023-02-27T18:01:06.774Z,134.34
2023-02-27T18:02:06.812Z,135.49
2023-02-27T18:03:06.853Z,134.14
2023-02-27T18:04:06.972Z,137.48
2023-02-27T18:05:06.988Z,133.51
2023-02-27T18:06:07.118Z,133.38
2023-02-27T18:07:07.131Z,133.17
2023-02-27T18:08:07.203Z,134.09
2023-02-27T18:09:07.265Z,133.38
2023-02-27T18:10:07.359Z,134.68
2023-02-27T18:11:07.426Z,132.53
2023-02-27T18:12:07.499Z,133.13
2023-02-27T18:13:07.570Z,132.48
2023-02-27T18:14:07.674Z,132.60
2023-02-27T18:15:07.719Z,131.69
2023-02-27T18:16:07.896Z,131.91
2023-02-27T18:17:07.882Z,130.13
2023-02-27T18:18:07.934Z,130.81
2023-02-27T18:19:08.020Z,131.39
2023-02-27T18:20:08.100Z,129.14
2023-02-27T18:21:08.366Z,129.14
2023-02-27T18:22:08.236Z,129.75
2023-02-27T18:23:08.315Z,130.92
2023-02-27T18:24:08.389Z,131.16
2023-02-27T18:25:08.480Z,128.85
2023-02-27T18:26:12.531Z,128.93
2023-02-27T18:27:09.568Z,129.11
2023-02-27T18:28:08.551Z,128.46
2023-02-27T18:29:08.579Z,129.54
2023-02-27T18:30:08.594Z,129.77
2023-02-27T18:31:08.672Z,129.72
2023-02-27T18:32:08.740Z,128.34
2023-02-27T18:33:08.703Z,129.56
2023-02-27T18:34:08.634Z,128.04
2023-02-27T18:35:08.638Z,126.69
2023-02-27T18:36:08.643Z,127.53
2023-02-27T18:37:08.700Z,127.42
2023-02-27T18:38:08.764Z,127.21
2023-02-27T18:39:08.824Z,127.85
2023-02-27T18:40:08.882Z,127.32
2023-02-27T18:41:09.024Z,125.72
2023-02-27T18:42:09.097Z,126.51
2023-02-27T18:43:09.071Z,124.60
2023-02-27T18:44:09.110Z,125.43
2023-02-27T18:45:09.154Z,123.73
2023-02-27T18:46:09.234Z,124.41
2023-02-27T18:47:09.250Z,124.71
2023-02-27T18:48:09.320Z,124.38
2023-02-27T18:49:09.322Z,125.63
2023-02-27T18:50:09.361Z,125.99
2023-02-27T18:51:09.435Z,122.32
2023-02-27T18:52:09.488Z,124.93
2023-02-27T18:53:09.525Z,121.98
2023-02-27T18:54:09.587Z,123.48
2023-02-27T18:55:09.626Z,121.88
2023-02-27T18:56:09.745Z,123.04
2023-02-27T18:57:09.809Z,123.19
2023-02-27T18:58:09.819Z,121.32
2023-02-27T18:59:09.850Z,119.87
2023-02-27T19:00:09.903Z,120.23
2023-02-27T19:01:09.943Z,120.12
2023-02-27T19:02:09.961Z,122.17
2023-02-27T19:03:10.138Z,120.47
2023-02-27T19:04:10.079Z,120.66
2023-02-27T19:05:10.114Z,120.04
2023-02-27T19:06:10.143Z,120.64
2023-02-27T19:07:10.177Z,122.17
2023-02-27T19:08:10.313Z,118.29
2023-02-27T19:09:10.225Z,119.59
2023-02-27T19:10:10.259Z,117.05
2023-02-27T19:11:10.290Z,120.04
2023-02-27T19:12:10.334Z,120.66
2023-02-27T19:13:10.406Z,117.38
2023-02-27T19:14:10.434Z,119.42
2023-02-27T19:15:10.541Z,116.41
2023-02-27T19:16:10.542Z,117.44
2023-02-27T19:17:10.543Z,116.16
2023-02-27T19:18:10.568Z,116.82
2023-02-27T19:19:10.624Z,115.16
2023-02-27T19:20:10.717Z,118.17
2023-02-27T19:21:10.687Z,115.17
2023-02-27T19:22:10.718Z,115.05
2023-02-27T19:23:10.742Z,118.21
2023-02-27T19:24:10.792Z,115.57
2023-02-27T19:25:10.830Z,114.46
2023-02-27T19:26:10.880Z,115.31
2023-02-27T19:27:10.949Z,115.33
2023-02-27T19:28:10.993Z,114.54
2023-02-27T19:29:11.056Z,114.17
2023-02-27T19:30:11.129Z,114.05
2023-02-27T20:20:14.102Z,101.78
2023-02-27T20:21:14.133Z,102.21
2023-02-27T20:22:14.169Z,100.42
2023-02-27T20:23:14.199Z,102.19
2023-02-27T20:24:14.262Z,103.05
2023-02-27T20:25:14.286Z,102.42
2023-02-27T20:26:14.436Z,100.17
2023-02-27T20:27:14.408Z,101.53
2023-02-27T20:28:14.457Z,100.28
2023-02-27T20:29:14.532Z,101.68
2023-02-27T20:30:14.581Z,103.23
2023-02-27T21:01:15.981Z,96.26
2023-02-27T21:02:16.003Z,95.58
2023-02-27T21:03:16.049Z,93.64
2023-02-27T21:04:16.210Z,94.00
2023-02-27T21:05:16.194Z,95.75
2023-02-27T21:06:16.238Z,93.59
2023-02-27T21:07:16.325Z,94.24
2023-02-27T21:08:16.367Z,95.18
2023-02-27T21:09:16.438Z,93.38
2023-02-27T21:10:16.566Z,92.24
2023-02-27T21:11:16.545Z,94.76
2023-02-27T21:12:16.622Z,93.67
2023-02-27T21:13:16.663Z,95.48
2023-02-27T21:14:16.713Z,93.24
2023-02-27T21:15:16.754Z,92.69
2023-02-27T21:16:16.877Z,92.11
2023-02-27T21:17:16.857Z,91.22
2023-02-27T21:18:16.900Z,90.08
2023-02-27T21:19:16.970Z,90.63
2023-02-27T21:20:17.052Z,90.51
2023-02-27T21:21:17.112Z,90.38
2023-02-27T21:22:17.180Z,92.50
2023-02-27T21:23:17.216Z,90.85
2023-02-27T21:24:17.289Z,88.50
2023-02-27T21:25:17.334Z,89.93
2023-02-27T21:26:17.386Z,88.62
2023-02-27T21:27:17.447Z,91.81
2023-02-27T21:28:17.525Z,91.06
2023-02-27T21:29:17.567Z,91.32
2023-02-27T21:30:17.679Z,89.02
2023-02-27T21:31:17.815Z,90.91
2023-02-27T21:32:17.820Z,90.53
2023-02-27T21:33:17.838Z,88.98
2023-02-27T21:44:18.475Z,84.08
2023-02-27T21:45:18.537Z,85.59
2023-02-27T21:46:18.584Z,88.06
2023-02-27T21:47:18.594Z,85.07
2023-02-27T21:48:18.639Z,85.86
2023-02-27T21:49:18.694Z,87.43
2023-02-27T21:50:18.751Z,86.53
2023-02-27T21:51:33.040Z,87.18
2023-02-27T21:52:19.754Z,87.28
2023-02-27T21:53:18.764Z,85.64
2023-02-27T21:54:18.786Z,86.07
2023-02-27T21:55:18.804Z,87.47
2023-02-27T21:56:18.795Z,85.29
2023-02-27T21:57:18.827Z,86.24
2023-02-27T21:58:18.833Z,85.80
2023-02-27T21:59:18.844Z,83.31
2023-02-27T22:00:18.883Z,86.36
2023-02-27T22:01:18.890Z,84.02
2023-02-27T22:02:18.943Z,85.94
2023-02-27T22:03:18.900Z,82.13
2023-02-27T22:04:18.916Z,81.73
2023-02-27T22:05:18.974Z,83.67
2023-02-27T22:06:18.944Z,82.21
2023-02-27T22:07:18.947Z,82.25
2023-02-27T22:08:18.960Z,82.63
2023-02-27T22:09:18.987Z,84.19
2023-02-27T22:10:19.006Z,83.20
2023-02-27T22:11:19.016Z,82.09
2023-02-27T22:12:19.040Z,80.90
2023-02-27T22:13:19.488Z,81.64
2023-02-27T22:14:19.064Z,79.97
2023-02-27T22:15:19.073Z,81.11
2023-02-27T22:16:19.164Z,82.63
2023-02-27T22:17:19.107Z,79.50
2023-02-27T22:18:19.124Z,81.50
2023-02-27T22:19:19.147Z,81.20
2023-02-27T22:20:19.269Z,80.41
2023-02-27T22:21:19.245Z,81.83
2023-02-27T22:22:19.192Z,78.18
2023-02-27T22:23:19.206Z,79.60
2023-02-27T22:24:19.306Z,81.53
2023-02-27T22:25:19.263Z,78.10
2023-02-27T22:26:19.310Z,80.87
2023-02-27T22:27:19.330Z,80.35
2023-02-27T22:28:19.390Z,77.75
2023-02-27T22:29:19.427Z,77.59
2023-02-27T22:30:19.493Z,81.52
2023-02-27T22:31:19.525Z,80.64
2023-02-27T22:32:19.581Z,78.22
2023-02-27T22:33:19.573Z,78.23
2023-02-27T22:34:19.627Z,77.11
2023-02-27T22:35:19.634Z,79.57
2023-02-27T22:36:19.643Z,77.64
2023-02-27T22:37:19.695Z,78.64
2023-02-27T22:38:19.753Z,76.01
2023-02-27T22:39:19.740Z,77.73
2023-02-27T22:40:19.755Z,78.54
2023-02-27T22:41:19.789Z,79.28
2023-02-27T22:42:19.822Z,76.42
2023-02-27T22:43:19.842Z,75.99
2023-02-27T22:44:19.855Z,75.65
2023-02-27T22:45:19.861Z,76.98
2023-02-27T22:46:19.905Z,77.51
2023-02-27T22:47:19.948Z,75.50
2023-02-27T22:48:19.970Z,79.04
2023-02-27T22:49:20.005Z,76.33
2023-02-27T22:50:20.096Z,77.02
2023-02-27T22:51:20.036Z,77.32
2023-02-27T22:52:20.072Z,75.90
2023-02-27T22:53:20.114Z,78.55
2023-02-27T22:54:20.145Z,78.93
2023-02-27T22:55:20.162Z,77.55
2023-02-27T22:56:20.214Z,75.57
2023-02-27T22:57:20.254Z,77.48
2023-02-27T22:58:20.350Z,76.09
2023-02-27T22:59:20.303Z,77.41
2023-02-27T23:00:20.335Z,76.24
2023-02-27T23:01:21.015Z,74.45
2023-02-27T23:02:20.392Z,78.90
2023-02-27T23:03:20.458Z,73.97
2023-02-27T23:04:20.553Z,75.94
2023-02-27T23:05:20.515Z,75.02
2023-02-27T23:06:20.601Z,76.75
2023-02-27T23:07:20.548Z,76.72
2023-02-27T23:08:20.585Z,78.40
2023-02-27T23:09:20.670Z,74.58
2023-02-27T23:10:20.668Z,74.13
2023-02-27T23:11:20.674Z,77.26
2023-02-27T23:12:20.702Z,75.49
2023-02-27T23:13:20.721Z,75.43
2023-02-27T23:14:20.753Z,76.81
2023-02-27T23:15:20.788Z,73.03
2023-02-27T23:16:20.841Z,73.70
2023-02-27T23:17:20.805Z,75.97
2023-02-27T23:18:20.828Z,74.66
2023-02-27T23:19:20.847Z,74.05
2023-02-27T23:20:20.872Z,75.76
2023-02-27T23:21:20.892Z,76.70
2023-02-27T23:22:20.906Z,73.42
2023-02-27T23:23:20.938Z,75.08
2023-02-27T23:24:20.988Z,72.30
2023-02-27T23:25:20.983Z,75.55
2023-02-27T23:26:21.023Z,76.24
2023-02-27T23:27:26.284Z,75.08
2023-02-27T23:28:22.036Z,75.27
2023-02-27T23:29:21.063Z,75.09
2023-02-27T23:30:21.069Z,75.48
2023-02-27T23:31:21.120Z,74.91
2023-02-27T23:32:21.219Z,73.65
2023-02-27T23:33:21.127Z,76.08
2023-02-27T23:34:21.138Z,75.60
2023-02-27T23:35:21.156Z,74.72
2023-02-27T23:36:21.171Z,74.54
2023-02-27T23:37:21.199Z,76.60
2023-02-27T23:38:21.206Z,74.32
2023-02-27T23:39:21.227Z,73.81
2023-02-27T23:40:21.243Z,72.02
2023-02-27T23:41:21.240Z,73.26
2023-02-27T23:42:21.260Z,72.28
2023-02-27T23:43:21.363Z,72.87
2023-02-27T23:44:21.304Z,72.03
2023-02-27T23:45:21.298Z,74.50
2023-02-27T23:46:21.332Z,74.00
2023-02-27T23:47:21.348Z,75.70
2023-02-27T23:48:21.365Z,72.53
2023-02-27T23:49:21.377Z,73.08
2023-02-27T23:50:21.413Z,72.93
2023-02-27T23:51:21.436Z,72.31
2023-02-27T23:52:21.430Z,73.35
2023-02-27T23:53:21.470Z,70.50
2023-02-27T23:54:21.470Z,72.84
2023-02-27T23:55:21.526Z,73.00
2023-02-27T23:56:21.511Z,73.58
2023-02-27T23:57:21.510Z,71.83
2023-02-27T23:58:22.021Z,70.27
2023-02-27T23:59:21.538Z,72.03
